sensor_id;sensor_type;location;lat;lon;timestamp;temperature;humidity
55812;DHT22;41742;52.048;6.092;2022-10-16T00:01:21;11.00;99.90
55812;DHT22;41742;52.048;6.092;2022-10-16T00:03:48;11.00;99.90
55812;DHT22;41742;52.048;6.092;2022-10-16T00:06:15;11.00;99.90
55812;DHT22;41742;52.048;6.092;2022-10-16T00:08:42;11.00;99.90
55812;DHT22;41742;52.048;6.092;2022-10-16T00:11:18;10.90;99.90
55812;DHT22;41742;52.048;6.092;2022-10-16T00:13:46;10.90;99.90
55812;DHT22;41742;52.048;6.092;2022-10-16T00:16:13;10.80;99.90
55812;DHT22;41742;52.048;6.092;2022-10-16T00:18:39;10.80;99.90
55812;DHT22;41742;52.048;6.092;2022-10-16T00:21:32;10.80;99.90
55812;DHT22;41742;52.048;6.092;2022-10-16T00:24:04;10.70;99.90
55812;DHT22;41742;52.048;6.092;2022-10-16T00:26:32;10.80;99.90
55812;DHT22;41742;52.048;6.092;2022-10-16T00:28:58;10.70;99.90
55812;DHT22;41742;52.048;6.092;2022-10-16T00:31:24;10.60;99.90
55812;DHT22;41742;52.048;6.092;2022-10-16T00:33:50;10.60;99.90
55812;DHT22;41742;52.048;6.092;2022-10-16T00:36:20;10.90;99.90
55812;DHT22;41742;52.048;6.092;2022-10-16T00:38:46;10.90;99.90
55812;DHT22;41742;52.048;6.092;2022-10-16T00:41:15;11.00;99.90
55812;DHT22;41742;52.048;6.092;2022-10-16T00:43:46;11.00;99.90
55812;DHT22;41742;52.048;6.092;2022-10-16T00:46:13;11.00;99.90
55812;DHT22;41742;52.048;6.092;2022-10-16T00:48:40;11.00;99.90
55812;DHT22;41742;52.048;6.092;2022-10-16T00:51:06;11.00;99.90
55812;DHT22;41742;52.048;6.092;2022-10-16T00:53:32;10.90;99.90
55812;DHT22;41742;52.048;6.092;2022-10-16T00:55:59;11.00;99.90
55812;DHT22;41742;52.048;6.092;2022-10-16T00:58:24;10.90;99.90
55812;DHT22;41742;52.048;6.092;2022-10-16T01:00:50;10.90;99.90
55812;DHT22;41742;52.048;6.092;2022-10-16T01:03:25;11.00;99.90
55812;DHT22;41742;52.048;6.092;2022-10-16T01:05:59;11.00;99.90
55812;DHT22;41742;52.048;6.092;2022-10-16T01:08:35;11.00;99.90
55812;DHT22;41742;52.048;6.092;2022-10-16T01:11:32;11.00;99.90
55812;DHT22;41742;52.048;6.092;2022-10-16T01:14:06;11.00;99.90
55812;DHT22;41742;52.048;6.092;2022-10-16T01:16:40;11.00;99.90
55812;DHT22;41742;52.048;6.092;2022-10-16T01:19:14;10.90;99.90
55812;DHT22;41742;52.048;6.092;2022-10-16T01:21:43;11.10;99.90
55812;DHT22;41742;52.048;6.092;2022-10-16T01:32:02;11.10;99.90
55812;DHT22;41742;52.048;6.092;2022-10-16T01:34:38;11.00;99.90
55812;DHT22;41742;52.048;6.092;2022-10-16T01:37:12;11.00;99.90
55812;DHT22;41742;52.048;6.092;2022-10-16T01:39:41;11.10;99.90
55812;DHT22;41742;52.048;6.092;2022-10-16T01:42:30;11.00;99.90
55812;DHT22;41742;52.048;6.092;2022-10-16T01:44:57;11.10;99.90
55812;DHT22;41742;52.048;6.092;2022-10-16T01:47:25;11.10;99.90
55812;DHT22;41742;52.048;6.092;2022-10-16T01:49:53;11.00;99.90
55812;DHT22;41742;52.048;6.092;2022-10-16T01:52:23;11.00;99.90
55812;DHT22;41742;52.048;6.092;2022-10-16T01:54:52;11.10;99.90
55812;DHT22;41742;52.048;6.092;2022-10-16T01:57:21;11.10;99.90
55812;DHT22;41742;52.048;6.092;2022-10-16T01:59:52;11.10;99.90
55812;DHT22;41742;52.048;6.092;2022-10-16T02:02:19;11.20;99.90
55812;DHT22;41742;52.048;6.092;2022-10-16T02:04:54;11.20;99.90
55812;DHT22;41742;52.048;6.092;2022-10-16T02:07:22;11.20;99.90
55812;DHT22;41742;52.048;6.092;2022-10-16T02:09:47;11.20;99.90
55812;DHT22;41742;52.048;6.092;2022-10-16T02:12:25;11.20;99.90
55812;DHT22;41742;52.048;6.092;2022-10-16T02:14:52;11.20;99.90
55812;DHT22;41742;52.048;6.092;2022-10-16T02:17:19;11.10;99.90
55812;DHT22;41742;52.048;6.092;2022-10-16T02:19:46;11.10;99.90
55812;DHT22;41742;52.048;6.092;2022-10-16T02:22:18;11.10;99.90
55812;DHT22;41742;52.048;6.092;2022-10-16T02:29:49;11.10;99.90
55812;DHT22;41742;52.048;6.092;2022-10-16T02:32:20;11.00;99.90
55812;DHT22;41742;52.048;6.092;2022-10-16T02:34:48;11.10;99.90
55812;DHT22;41742;52.048;6.092;2022-10-16T02:37:15;11.10;99.90
55812;DHT22;41742;52.048;6.092;2022-10-16T02:39:41;11.20;99.90
55812;DHT22;41742;52.048;6.092;2022-10-16T02:42:14;11.20;99.90
55812;DHT22;41742;52.048;6.092;2022-10-16T02:44:40;11.20;99.90
55812;DHT22;41742;52.048;6.092;2022-10-16T02:47:06;11.20;99.90
55812;DHT22;41742;52.048;6.092;2022-10-16T02:49:31;11.10;99.90
55812;DHT22;41742;52.048;6.092;2022-10-16T02:51:57;11.10;99.90
55812;DHT22;41742;52.048;6.092;2022-10-16T02:54:23;11.10;99.90
55812;DHT22;41742;52.048;6.092;2022-10-16T02:56:49;11.20;99.90
55812;DHT22;41742;52.048;6.092;2022-10-16T02:59:15;11.10;99.90
55812;DHT22;41742;52.048;6.092;2022-10-16T03:01:40;11.10;99.90
55812;DHT22;41742;52.048;6.092;2022-10-16T03:04:06;11.10;99.90
55812;DHT22;41742;52.048;6.092;2022-10-16T03:06:32;11.00;99.90
55812;DHT22;41742;52.048;6.092;2022-10-16T03:08:57;11.10;99.90
55812;DHT22;41742;52.048;6.092;2022-10-16T03:11:23;11.00;99.90
55812;DHT22;41742;52.048;6.092;2022-10-16T03:13:48;11.00;99.90
55812;DHT22;41742;52.048;6.092;2022-10-16T03:16:14;11.10;99.90
55812;DHT22;41742;52.048;6.092;2022-10-16T03:18:40;11.00;99.90
55812;DHT22;41742;52.048;6.092;2022-10-16T03:21:05;11.10;99.90
55812;DHT22;41742;52.048;6.092;2022-10-16T03:23:31;11.20;99.90
55812;DHT22;41742;52.048;6.092;2022-10-16T03:25:57;11.20;99.90
55812;DHT22;41742;52.048;6.092;2022-10-16T03:28:22;11.20;99.90
55812;DHT22;41742;52.048;6.092;2022-10-16T03:30:48;11.20;99.90
55812;DHT22;41742;52.048;6.092;2022-10-16T03:33:13;11.30;99.90
55812;DHT22;41742;52.048;6.092;2022-10-16T03:35:39;11.40;99.90
55812;DHT22;41742;52.048;6.092;2022-10-16T03:38:05;11.40;99.90
55812;DHT22;41742;52.048;6.092;2022-10-16T03:40:30;11.40;99.90
55812;DHT22;41742;52.048;6.092;2022-10-16T03:42:57;11.40;99.90
55812;DHT22;41742;52.048;6.092;2022-10-16T03:45:24;11.50;99.90
55812;DHT22;41742;52.048;6.092;2022-10-16T03:47:49;11.40;99.90
55812;DHT22;41742;52.048;6.092;2022-10-16T03:50:15;11.40;99.90
55812;DHT22;41742;52.048;6.092;2022-10-16T03:52:41;11.40;99.90
55812;DHT22;41742;52.048;6.092;2022-10-16T03:55:07;11.40;99.90
55812;DHT22;41742;52.048;6.092;2022-10-16T03:57:33;11.40;99.90
55812;DHT22;41742;52.048;6.092;2022-10-16T03:59:58;11.40;99.90
55812;DHT22;41742;52.048;6.092;2022-10-16T04:02:24;11.40;99.90
55812;DHT22;41742;52.048;6.092;2022-10-16T04:04:50;11.40;99.90
55812;DHT22;41742;52.048;6.092;2022-10-16T04:07:15;11.40;99.90
55812;DHT22;41742;52.048;6.092;2022-10-16T04:09:41;11.40;99.90
55812;DHT22;41742;52.048;6.092;2022-10-16T04:12:07;11.40;99.90
55812;DHT22;41742;52.048;6.092;2022-10-16T04:14:33;11.30;99.90
55812;DHT22;41742;52.048;6.092;2022-10-16T04:16:58;11.30;99.90
55812;DHT22;41742;52.048;6.092;2022-10-16T04:19:24;11.30;99.90
55812;DHT22;41742;52.048;6.092;2022-10-16T04:21:49;11.30;99.90
55812;DHT22;41742;52.048;6.092;2022-10-16T04:24:15;11.30;99.90
55812;DHT22;41742;52.048;6.092;2022-10-16T04:26:40;11.30;99.90
55812;DHT22;41742;52.048;6.092;2022-10-16T04:29:06;11.30;99.90
55812;DHT22;41742;52.048;6.092;2022-10-16T04:31:33;11.40;99.90
55812;DHT22;41742;52.048;6.092;2022-10-16T04:33:58;11.40;99.90
55812;DHT22;41742;52.048;6.092;2022-10-16T04:36:24;11.50;99.90
55812;DHT22;41742;52.048;6.092;2022-10-16T04:38:50;11.50;99.90
55812;DHT22;41742;52.048;6.092;2022-10-16T04:41:15;11.50;99.90
55812;DHT22;41742;52.048;6.092;2022-10-16T04:43:41;11.50;99.90
55812;DHT22;41742;52.048;6.092;2022-10-16T04:46:07;11.60;99.90
55812;DHT22;41742;52.048;6.092;2022-10-16T04:48:32;11.60;99.90
55812;DHT22;41742;52.048;6.092;2022-10-16T04:50:58;11.60;99.90
55812;DHT22;41742;52.048;6.092;2022-10-16T04:53:24;11.60;99.90
55812;DHT22;41742;52.048;6.092;2022-10-16T04:55:50;11.70;99.90
55812;DHT22;41742;52.048;6.092;2022-10-16T04:58:16;11.60;99.90
55812;DHT22;41742;52.048;6.092;2022-10-16T05:00:42;11.70;99.90
55812;DHT22;41742;52.048;6.092;2022-10-16T05:03:08;11.60;99.90
55812;DHT22;41742;52.048;6.092;2022-10-16T05:05:35;11.60;99.90
55812;DHT22;41742;52.048;6.092;2022-10-16T05:08:01;11.60;99.90
55812;DHT22;41742;52.048;6.092;2022-10-16T05:10:27;11.60;99.90
55812;DHT22;41742;52.048;6.092;2022-10-16T05:12:53;11.60;99.90
55812;DHT22;41742;52.048;6.092;2022-10-16T05:15:19;11.70;99.90
55812;DHT22;41742;52.048;6.092;2022-10-16T05:17:45;11.70;99.90
55812;DHT22;41742;52.048;6.092;2022-10-16T05:20:11;11.60;99.90
55812;DHT22;41742;52.048;6.092;2022-10-16T05:22:37;11.60;99.90
55812;DHT22;41742;52.048;6.092;2022-10-16T05:25:02;11.60;99.90
55812;DHT22;41742;52.048;6.092;2022-10-16T05:27:28;11.70;99.90
55812;DHT22;41742;52.048;6.092;2022-10-16T05:29:54;11.60;99.90
55812;DHT22;41742;52.048;6.092;2022-10-16T05:32:20;11.60;99.90
55812;DHT22;41742;52.048;6.092;2022-10-16T05:34:45;11.60;99.90
55812;DHT22;41742;52.048;6.092;2022-10-16T05:37:11;11.60;99.90
55812;DHT22;41742;52.048;6.092;2022-10-16T05:39:37;11.60;99.90
55812;DHT22;41742;52.048;6.092;2022-10-16T05:42:04;11.60;99.90
55812;DHT22;41742;52.048;6.092;2022-10-16T05:44:30;11.50;99.90
55812;DHT22;41742;52.048;6.092;2022-10-16T05:46:55;11.50;99.90
55812;DHT22;41742;52.048;6.092;2022-10-16T05:49:21;11.50;99.90
55812;DHT22;41742;52.048;6.092;2022-10-16T05:51:46;11.50;99.90
55812;DHT22;41742;52.048;6.092;2022-10-16T05:54:12;11.40;99.90
55812;DHT22;41742;52.048;6.092;2022-10-16T05:56:38;11.50;99.90
55812;DHT22;41742;52.048;6.092;2022-10-16T05:59:04;11.40;99.90
55812;DHT22;41742;52.048;6.092;2022-10-16T06:01:30;11.40;99.90
55812;DHT22;41742;52.048;6.092;2022-10-16T06:03:56;11.40;99.90
55812;DHT22;41742;52.048;6.092;2022-10-16T06:06:25;11.40;99.90
55812;DHT22;41742;52.048;6.092;2022-10-16T06:08:55;11.40;99.90
55812;DHT22;41742;52.048;6.092;2022-10-16T06:11:24;11.40;99.90
55812;DHT22;41742;52.048;6.092;2022-10-16T06:13:51;11.40;99.90
55812;DHT22;41742;52.048;6.092;2022-10-16T06:16:18;11.30;99.90
55812;DHT22;41742;52.048;6.092;2022-10-16T06:18:43;11.40;99.90
55812;DHT22;41742;52.048;6.092;2022-10-16T06:21:16;11.30;99.90
55812;DHT22;41742;52.048;6.092;2022-10-16T06:23:42;11.30;99.90
55812;DHT22;41742;52.048;6.092;2022-10-16T06:26:09;11.30;99.90
55812;DHT22;41742;52.048;6.092;2022-10-16T06:28:36;11.30;99.90
55812;DHT22;41742;52.048;6.092;2022-10-16T06:31:03;11.30;99.90
55812;DHT22;41742;52.048;6.092;2022-10-16T06:33:29;11.40;99.90
55812;DHT22;41742;52.048;6.092;2022-10-16T06:36:03;11.40;99.90
55812;DHT22;41742;52.048;6.092;2022-10-16T06:38:31;11.40;99.90
55812;DHT22;41742;52.048;6.092;2022-10-16T06:40:57;11.40;99.90
55812;DHT22;41742;52.048;6.092;2022-10-16T06:43:23;11.50;99.90
55812;DHT22;41742;52.048;6.092;2022-10-16T06:45:53;11.50;99.90
55812;DHT22;41742;52.048;6.092;2022-10-16T06:48:19;11.60;99.90
55812;DHT22;41742;52.048;6.092;2022-10-16T06:50:54;11.60;99.90
55812;DHT22;41742;52.048;6.092;2022-10-16T06:53:19;11.60;99.90
55812;DHT22;41742;52.048;6.092;2022-10-16T06:55:45;11.70;99.90
55812;DHT22;41742;52.048;6.092;2022-10-16T06:58:11;11.70;99.90
55812;DHT22;41742;52.048;6.092;2022-10-16T07:00:36;11.80;99.90
55812;DHT22;41742;52.048;6.092;2022-10-16T07:03:02;11.80;99.90
55812;DHT22;41742;52.048;6.092;2022-10-16T07:05:28;11.80;99.90
55812;DHT22;41742;52.048;6.092;2022-10-16T07:07:53;11.80;99.90
55812;DHT22;41742;52.048;6.092;2022-10-16T07:10:19;11.90;99.90
55812;DHT22;41742;52.048;6.092;2022-10-16T07:12:44;11.90;99.90
55812;DHT22;41742;52.048;6.092;2022-10-16T07:15:10;11.90;99.90
55812;DHT22;41742;52.048;6.092;2022-10-16T07:17:36;12.00;99.90
55812;DHT22;41742;52.048;6.092;2022-10-16T07:20:02;12.00;99.90
55812;DHT22;41742;52.048;6.092;2022-10-16T07:22:28;12.00;99.90
55812;DHT22;41742;52.048;6.092;2022-10-16T07:24:54;12.00;99.90
55812;DHT22;41742;52.048;6.092;2022-10-16T07:27:20;12.10;99.90
55812;DHT22;41742;52.048;6.092;2022-10-16T07:29:49;12.10;99.90
55812;DHT22;41742;52.048;6.092;2022-10-16T07:32:15;12.10;99.90
55812;DHT22;41742;52.048;6.092;2022-10-16T07:34:40;12.10;99.90
55812;DHT22;41742;52.048;6.092;2022-10-16T07:37:06;12.10;99.90
55812;DHT22;41742;52.048;6.092;2022-10-16T07:39:31;12.10;99.90
55812;DHT22;41742;52.048;6.092;2022-10-16T07:41:57;12.20;99.90
55812;DHT22;41742;52.048;6.092;2022-10-16T07:44:24;12.20;99.90
55812;DHT22;41742;52.048;6.092;2022-10-16T07:46:49;12.30;99.90
55812;DHT22;41742;52.048;6.092;2022-10-16T07:49:15;12.30;99.90
55812;DHT22;41742;52.048;6.092;2022-10-16T07:51:40;12.40;99.90
55812;DHT22;41742;52.048;6.092;2022-10-16T07:54:08;12.60;99.90
55812;DHT22;41742;52.048;6.092;2022-10-16T07:56:34;12.60;99.90
55812;DHT22;41742;52.048;6.092;2022-10-16T07:58:59;12.60;99.90
55812;DHT22;41742;52.048;6.092;2022-10-16T08:01:25;12.60;99.90
55812;DHT22;41742;52.048;6.092;2022-10-16T08:03:51;12.60;99.90
55812;DHT22;41742;52.048;6.092;2022-10-16T08:06:19;12.60;99.90
55812;DHT22;41742;52.048;6.092;2022-10-16T08:08:45;12.60;99.90
55812;DHT22;41742;52.048;6.092;2022-10-16T08:11:10;12.70;99.90
55812;DHT22;41742;52.048;6.092;2022-10-16T08:13:36;12.80;99.90
55812;DHT22;41742;52.048;6.092;2022-10-16T08:16:03;12.80;99.90
55812;DHT22;41742;52.048;6.092;2022-10-16T08:18:34;12.80;99.90
55812;DHT22;41742;52.048;6.092;2022-10-16T08:21:00;12.80;99.90
55812;DHT22;41742;52.048;6.092;2022-10-16T08:23:26;12.90;99.90
55812;DHT22;41742;52.048;6.092;2022-10-16T08:25:53;13.10;99.90
55812;DHT22;41742;52.048;6.092;2022-10-16T08:28:19;13.10;99.90
55812;DHT22;41742;52.048;6.092;2022-10-16T08:30:45;13.10;99.90
55812;DHT22;41742;52.048;6.092;2022-10-16T08:33:10;13.20;99.90
55812;DHT22;41742;52.048;6.092;2022-10-16T08:35:37;13.30;99.90
55812;DHT22;41742;52.048;6.092;2022-10-16T08:38:03;13.30;99.90
55812;DHT22;41742;52.048;6.092;2022-10-16T08:40:31;13.40;99.90
55812;DHT22;41742;52.048;6.092;2022-10-16T08:43:05;13.50;99.90
55812;DHT22;41742;52.048;6.092;2022-10-16T08:45:52;13.50;99.90
55812;DHT22;41742;52.048;6.092;2022-10-16T08:48:30;13.60;99.90
55812;DHT22;41742;52.048;6.092;2022-10-16T08:50:57;13.60;99.90
55812;DHT22;41742;52.048;6.092;2022-10-16T08:53:41;13.50;99.90
55812;DHT22;41742;52.048;6.092;2022-10-16T08:56:08;13.50;99.90
55812;DHT22;41742;52.048;6.092;2022-10-16T08:58:34;13.60;99.90
55812;DHT22;41742;52.048;6.092;2022-10-16T09:01:12;13.70;99.90
55812;DHT22;41742;52.048;6.092;2022-10-16T09:06:38;13.70;99.90
55812;DHT22;41742;52.048;6.092;2022-10-16T09:12:01;13.70;99.90
55812;DHT22;41742;52.048;6.092;2022-10-16T09:14:58;13.80;99.90
55812;DHT22;41742;52.048;6.092;2022-10-16T09:17:30;13.80;99.90
55812;DHT22;41742;52.048;6.092;2022-10-16T09:22:45;13.80;99.90
55812;DHT22;41742;52.048;6.092;2022-10-16T09:25:16;13.90;99.90
55812;DHT22;41742;52.048;6.092;2022-10-16T09:27:45;13.90;99.90
55812;DHT22;41742;52.048;6.092;2022-10-16T09:30:15;14.00;99.90
55812;DHT22;41742;52.048;6.092;2022-10-16T09:32:42;14.00;99.90
55812;DHT22;41742;52.048;6.092;2022-10-16T09:35:15;14.10;99.90
55812;DHT22;41742;52.048;6.092;2022-10-16T09:37:44;14.20;99.90
55812;DHT22;41742;52.048;6.092;2022-10-16T09:40:33;14.20;99.90
55812;DHT22;41742;52.048;6.092;2022-10-16T09:43:13;14.40;99.90
55812;DHT22;41742;52.048;6.092;2022-10-16T09:45:41;14.40;99.90
55812;DHT22;41742;52.048;6.092;2022-10-16T09:48:11;14.40;99.90
55812;DHT22;41742;52.048;6.092;2022-10-16T09:50:38;14.40;99.90
55812;DHT22;41742;52.048;6.092;2022-10-16T09:53:13;14.40;99.90
55812;DHT22;41742;52.048;6.092;2022-10-16T09:55:50;14.40;99.90
55812;DHT22;41742;52.048;6.092;2022-10-16T09:58:16;14.50;99.90
55812;DHT22;41742;52.048;6.092;2022-10-16T10:00:42;14.40;99.90
55812;DHT22;41742;52.048;6.092;2022-10-16T10:03:34;14.50;99.90
55812;DHT22;41742;52.048;6.092;2022-10-16T10:06:17;14.50;99.90
55812;DHT22;41742;52.048;6.092;2022-10-16T10:11:42;14.60;99.90
55812;DHT22;41742;52.048;6.092;2022-10-16T10:16:42;14.70;99.90
55812;DHT22;41742;52.048;6.092;2022-10-16T10:19:23;14.90;99.90
55812;DHT22;41742;52.048;6.092;2022-10-16T10:21:50;15.00;99.90
55812;DHT22;41742;52.048;6.092;2022-10-16T10:24:18;15.10;99.90
55812;DHT22;41742;52.048;6.092;2022-10-16T10:26:49;15.20;99.90
55812;DHT22;41742;52.048;6.092;2022-10-16T10:30:02;15.30;99.90
55812;DHT22;41742;52.048;6.092;2022-10-16T10:36:05;15.30;99.90
55812;DHT22;41742;52.048;6.092;2022-10-16T10:47:16;15.60;99.90
55812;DHT22;41742;52.048;6.092;2022-10-16T10:52:42;15.90;99.90
55812;DHT22;41742;52.048;6.092;2022-10-16T10:55:16;16.10;99.90
55812;DHT22;41742;52.048;6.092;2022-10-16T11:03:46;16.10;99.90
55812;DHT22;41742;52.048;6.092;2022-10-16T11:06:22;16.20;99.90
55812;DHT22;41742;52.048;6.092;2022-10-16T11:08:51;16.30;99.90
55812;DHT22;41742;52.048;6.092;2022-10-16T11:11:34;16.40;99.90
55812;DHT22;41742;52.048;6.092;2022-10-16T11:14:26;16.40;99.90
55812;DHT22;41742;52.048;6.092;2022-10-16T11:19:31;16.60;99.90
55812;DHT22;41742;52.048;6.092;2022-10-16T11:22:18;16.60;99.90
55812;DHT22;41742;52.048;6.092;2022-10-16T11:25:13;16.70;99.90
55812;DHT22;41742;52.048;6.092;2022-10-16T11:27:50;16.60;99.90
55812;DHT22;41742;52.048;6.092;2022-10-16T11:30:28;16.60;99.90
55812;DHT22;41742;52.048;6.092;2022-10-16T11:35:38;16.50;99.90
55812;DHT22;41742;52.048;6.092;2022-10-16T11:38:19;16.30;99.90
55812;DHT22;41742;52.048;6.092;2022-10-16T11:40:50;16.20;99.90
55812;DHT22;41742;52.048;6.092;2022-10-16T11:43:41;16.20;99.90
55812;DHT22;41742;52.048;6.092;2022-10-16T11:46:12;16.40;99.90
55812;DHT22;41742;52.048;6.092;2022-10-16T11:51:20;16.50;99.90
55812;DHT22;41742;52.048;6.092;2022-10-16T11:54:01;16.30;99.90
55812;DHT22;41742;52.048;6.092;2022-10-16T11:56:30;16.40;99.90
55812;DHT22;41742;52.048;6.092;2022-10-16T11:58:58;16.60;99.90
55812;DHT22;41742;52.048;6.092;2022-10-16T12:01:35;16.90;99.90
55812;DHT22;41742;52.048;6.092;2022-10-16T12:07:08;16.80;99.90
55812;DHT22;41742;52.048;6.092;2022-10-16T12:09:38;16.60;99.90
55812;DHT22;41742;52.048;6.092;2022-10-16T12:12:04;17.00;99.90
55812;DHT22;41742;52.048;6.092;2022-10-16T12:14:37;17.50;99.90
55812;DHT22;41742;52.048;6.092;2022-10-16T12:17:25;17.30;99.90
55812;DHT22;41742;52.048;6.092;2022-10-16T12:19:59;17.00;99.90
55812;DHT22;41742;52.048;6.092;2022-10-16T12:22:28;17.60;99.90
55812;DHT22;41742;52.048;6.092;2022-10-16T12:24:54;18.00;99.90
55812;DHT22;41742;52.048;6.092;2022-10-16T12:27:28;18.40;99.90
55812;DHT22;41742;52.048;6.092;2022-10-16T12:29:54;18.50;99.90
55812;DHT22;41742;52.048;6.092;2022-10-16T12:32:41;18.80;99.90
55812;DHT22;41742;52.048;6.092;2022-10-16T12:35:19;18.60;99.90
55812;DHT22;41742;52.048;6.092;2022-10-16T12:37:45;18.80;99.90
55812;DHT22;41742;52.048;6.092;2022-10-16T12:40:14;19.00;99.90
55812;DHT22;41742;52.048;6.092;2022-10-16T12:42:41;18.90;99.90
55812;DHT22;41742;52.048;6.092;2022-10-16T12:45:32;18.40;99.90
55812;DHT22;41742;52.048;6.092;2022-10-16T12:48:01;18.90;99.90
55812;DHT22;41742;52.048;6.092;2022-10-16T12:53:00;19.10;99.90
55812;DHT22;41742;52.048;6.092;2022-10-16T12:55:26;19.50;99.90
55812;DHT22;41742;52.048;6.092;2022-10-16T13:00:57;19.60;99.90
55812;DHT22;41742;52.048;6.092;2022-10-16T13:03:58;19.80;99.90
55812;DHT22;41742;52.048;6.092;2022-10-16T13:06:33;20.30;99.90
55812;DHT22;41742;52.048;6.092;2022-10-16T13:09:11;20.70;99.90
55812;DHT22;41742;52.048;6.092;2022-10-16T13:19:46;20.90;99.90
55812;DHT22;41742;52.048;6.092;2022-10-16T13:30:18;20.50;99.90
55812;DHT22;41742;52.048;6.092;2022-10-16T13:32:47;20.60;99.90
55812;DHT22;41742;52.048;6.092;2022-10-16T13:35:25;20.80;99.90
55812;DHT22;41742;52.048;6.092;2022-10-16T13:37:51;21.10;99.90
55812;DHT22;41742;52.048;6.092;2022-10-16T13:40:24;21.40;99.90
55812;DHT22;41742;52.048;6.092;2022-10-16T13:42:51;21.60;99.90
55812;DHT22;41742;52.048;6.092;2022-10-16T13:45:23;20.90;99.90
55812;DHT22;41742;52.048;6.092;2022-10-16T13:48:01;20.60;99.90
55812;DHT22;41742;52.048;6.092;2022-10-16T13:50:26;20.90;99.90
55812;DHT22;41742;52.048;6.092;2022-10-16T13:53:06;20.90;99.90
55812;DHT22;41742;52.048;6.092;2022-10-16T13:55:32;21.00;99.90
55812;DHT22;41742;52.048;6.092;2022-10-16T13:58:10;21.10;99.90
55812;DHT22;41742;52.048;6.092;2022-10-16T14:00:37;21.40;99.90
55812;DHT22;41742;52.048;6.092;2022-10-16T14:03:05;21.20;99.90
55812;DHT22;41742;52.048;6.092;2022-10-16T14:05:32;21.20;99.90
55812;DHT22;41742;52.048;6.092;2022-10-16T14:07:58;21.20;99.90
55812;DHT22;41742;52.048;6.092;2022-10-16T14:10:31;21.20;99.90
55812;DHT22;41742;52.048;6.092;2022-10-16T14:13:02;21.20;99.90
55812;DHT22;41742;52.048;6.092;2022-10-16T14:15:30;21.40;99.90
55812;DHT22;41742;52.048;6.092;2022-10-16T14:17:58;21.30;99.90
55812;DHT22;41742;52.048;6.092;2022-10-16T14:20:30;20.80;99.90
55812;DHT22;41742;52.048;6.092;2022-10-16T14:23:04;20.80;99.90
55812;DHT22;41742;52.048;6.092;2022-10-16T14:25:43;20.70;99.90
55812;DHT22;41742;52.048;6.092;2022-10-16T14:28:23;20.60;99.90
55812;DHT22;41742;52.048;6.092;2022-10-16T14:30:57;20.50;99.90
55812;DHT22;41742;52.048;6.092;2022-10-16T14:38:41;20.30;99.90
55812;DHT22;41742;52.048;6.092;2022-10-16T14:41:07;20.00;99.90
55812;DHT22;41742;52.048;6.092;2022-10-16T14:43:40;19.80;99.90
55812;DHT22;41742;52.048;6.092;2022-10-16T14:46:14;19.60;99.90
55812;DHT22;41742;52.048;6.092;2022-10-16T14:48:42;19.40;99.90
55812;DHT22;41742;52.048;6.092;2022-10-16T14:51:13;19.20;99.90
55812;DHT22;41742;52.048;6.092;2022-10-16T14:53:40;19.10;99.90
55812;DHT22;41742;52.048;6.092;2022-10-16T14:56:20;18.90;99.90
55812;DHT22;41742;52.048;6.092;2022-10-16T14:58:46;18.70;99.90
55812;DHT22;41742;52.048;6.092;2022-10-16T15:01:12;18.60;99.90
55812;DHT22;41742;52.048;6.092;2022-10-16T15:03:38;18.50;99.90
55812;DHT22;41742;52.048;6.092;2022-10-16T15:06:10;18.30;99.90
55812;DHT22;41742;52.048;6.092;2022-10-16T15:08:37;18.20;99.90
55812;DHT22;41742;52.048;6.092;2022-10-16T15:11:03;18.20;99.90
55812;DHT22;41742;52.048;6.092;2022-10-16T15:13:28;18.10;99.90
55812;DHT22;41742;52.048;6.092;2022-10-16T15:15:54;18.00;99.90
55812;DHT22;41742;52.048;6.092;2022-10-16T15:18:20;18.00;99.90
55812;DHT22;41742;52.048;6.092;2022-10-16T15:20:49;17.90;99.90
55812;DHT22;41742;52.048;6.092;2022-10-16T15:23:20;17.90;99.90
55812;DHT22;41742;52.048;6.092;2022-10-16T15:25:51;17.70;99.90
55812;DHT22;41742;52.048;6.092;2022-10-16T15:28:18;17.70;99.90
55812;DHT22;41742;52.048;6.092;2022-10-16T15:30:44;17.50;99.90
55812;DHT22;41742;52.048;6.092;2022-10-16T15:33:13;17.50;99.90
55812;DHT22;41742;52.048;6.092;2022-10-16T15:35:39;17.30;99.90
55812;DHT22;41742;52.048;6.092;2022-10-16T15:38:05;17.30;99.90
55812;DHT22;41742;52.048;6.092;2022-10-16T15:40:31;17.20;99.90
55812;DHT22;41742;52.048;6.092;2022-10-16T15:42:56;17.10;99.90
55812;DHT22;41742;52.048;6.092;2022-10-16T15:45:22;17.00;99.90
55812;DHT22;41742;52.048;6.092;2022-10-16T15:47:48;16.90;99.90
55812;DHT22;41742;52.048;6.092;2022-10-16T15:50:15;16.80;99.90
55812;DHT22;41742;52.048;6.092;2022-10-16T15:52:41;16.70;99.90
55812;DHT22;41742;52.048;6.092;2022-10-16T15:55:08;16.60;99.90
55812;DHT22;41742;52.048;6.092;2022-10-16T15:57:35;16.60;99.90
55812;DHT22;41742;52.048;6.092;2022-10-16T16:00:07;16.50;99.90
55812;DHT22;41742;52.048;6.092;2022-10-16T16:02:37;16.50;99.90
55812;DHT22;41742;52.048;6.092;2022-10-16T16:05:03;16.40;99.90
55812;DHT22;41742;52.048;6.092;2022-10-16T16:07:33;16.30;99.90
55812;DHT22;41742;52.048;6.092;2022-10-16T16:09:59;16.30;99.90
55812;DHT22;41742;52.048;6.092;2022-10-16T16:12:25;16.30;99.90
55812;DHT22;41742;52.048;6.092;2022-10-16T16:14:50;16.20;99.90
55812;DHT22;41742;52.048;6.092;2022-10-16T16:17:17;16.10;99.90
55812;DHT22;41742;52.048;6.092;2022-10-16T16:19:42;16.00;99.90
55812;DHT22;41742;52.048;6.092;2022-10-16T16:22:08;15.80;99.90
55812;DHT22;41742;52.048;6.092;2022-10-16T16:24:34;15.80;99.90
55812;DHT22;41742;52.048;6.092;2022-10-16T16:26:59;15.70;99.90
55812;DHT22;41742;52.048;6.092;2022-10-16T16:29:25;15.70;99.90
55812;DHT22;41742;52.048;6.092;2022-10-16T16:31:50;15.60;99.90
55812;DHT22;41742;52.048;6.092;2022-10-16T16:34:23;15.60;99.90
55812;DHT22;41742;52.048;6.092;2022-10-16T16:36:49;15.50;99.90
55812;DHT22;41742;52.048;6.092;2022-10-16T16:39:15;15.50;99.90
55812;DHT22;41742;52.048;6.092;2022-10-16T16:41:41;15.40;99.90
55812;DHT22;41742;52.048;6.092;2022-10-16T16:44:08;15.40;99.90
55812;DHT22;41742;52.048;6.092;2022-10-16T16:46:36;15.40;99.90
55812;DHT22;41742;52.048;6.092;2022-10-16T16:49:02;15.30;99.90
55812;DHT22;41742;52.048;6.092;2022-10-16T16:51:28;15.30;99.90
55812;DHT22;41742;52.048;6.092;2022-10-16T16:53:55;15.20;99.90
55812;DHT22;41742;52.048;6.092;2022-10-16T16:56:22;15.10;99.90
55812;DHT22;41742;52.048;6.092;2022-10-16T16:58:49;15.10;99.90
55812;DHT22;41742;52.048;6.092;2022-10-16T17:01:15;15.00;99.90
55812;DHT22;41742;52.048;6.092;2022-10-16T17:03:43;15.00;99.90
55812;DHT22;41742;52.048;6.092;2022-10-16T17:06:13;15.00;99.90
55812;DHT22;41742;52.048;6.092;2022-10-16T17:08:40;14.90;99.90